AirNav   Pilot Hours Calculator
 
 1424 users online  

MU73 Spencer Field Airport
Highlandville, Missouri, USA


FAA INFORMATION EFFECTIVE 01 DECEMBER 2022

Location

FAA Identifier: MU73
Lat/Long: 36-55-35.0200N 093-17-21.8000W
36-55.583667N 093-17.363333W
36.9263944,-93.2893889
(estimated)
Elevation: 1322 ft. / 403 m (estimated)
From city: 1 mile SW of HIGHLANDVILLE, MO
Time zone: UTC -6 (UTC -5 during Daylight Saving Time)
Zip code: 65669

Airport Operations

Airport use: Private use. Permission required prior to landing
Activation date: 08/2021
Control tower: no
ARTCC: KANSAS CITY CENTER
FSS: COLUMBIA FLIGHT SERVICE STATION
Attendance: 
Segmented circle: no

Airport Communications

WX AWOS-3 at FWB (15 nm S): 119.725 (417-272-3922)
WX ASOS at SGF (20 nm N): PHONE 417-863-6158

Nearby radio navigation aids

VOR radial/distance  VOR name  Freq  Var
DGDr253/20.6DOGWOOD VORTAC109.4001E
SGFr171/25.9SPRINGFIELD VORTAC116.9004E
HROr350/36.7HARRISON VOR/DME112.5004E

Airport Services

Runway Information

Runway 9/27

Dimensions: 1200 x 75 ft. / 366 x 23 m
Surface: turf
RUNWAY 9  RUNWAY 27
Latitude: 36-55.584000N36-55.583333N
Longitude: 093-17.486500W093-17.240167W
Elevation: 1270.0 ft.1322.0 ft.
Traffic pattern: leftleft

Airport Ownership and Management from official FAA records

Ownership: Privately-owned
Owner: AARON SPENCER
925 ELLIOT RD
NIXA, MO 65714
Phone 417-459-5219
Manager: AARON SPENCER
925 ELLIOT RD
NIXA, MO 65714
Phone 417-459-5219
AARONMSPENCER@GMAIL.COM

Airport Operational Statistics

Aircraft based on the field: 1
Single engine airplanes: 1
    

Instrument Procedures

There are no published instrument procedures at MU73.

Some nearby airports with instrument procedures:

KFWB - Branson West Municipal Airport - Emerson Field (15 nm S)
3DW - Downtown Airport (18 nm N)
KPLK - M Graham Clark Downtown Airport (18 nm S)
2H2 - Jerry Sumners Sr. Aurora Municipal Airport (20 nm W)
KSGF - Springfield-Branson National Airport (20 nm N)
 
Loc | Ops | Rwys | IFR | FBO | Links
Com | Nav | Svcs | Stats | Notes
Aerial photo
No photo
 
Airport distance calculator
Flying to Spencer Field Airport? Find the distance to fly.

From to MU73

Sunrise and sunset
Times for 02-Dec-2022
 Local
(UTC-6)
 Zulu
(UTC)
Morning civil twilight06:4112:41
Sunrise07:1013:10
Sunset16:5622:56
Evening civil twilight17:2423:24

Current date and time
Zulu (UTC)  02-Dec-2022 16:30:31
Local (UTC-6)  02-Dec-2022 10:30:31
 
METAR
KFWB 
15nm S 
021615Z AUTO 21008G15KT 170V240 10SM OVC018 12/07 A3001 RMK AO2
KSGF 
19nm N 
021552Z 19016KT 10SM OVC019 11/04 A2996 RMK AO2 SLP146 T01060039
KBBG 
24nm S 
021545Z 18008KT 10SM OVC019 12/07 A3002
TAF
KSGF 
19nm N 
021120Z 0212/0312 18018G25KT P6SM OVC023 WS020/22055KT FM021800 18026G39KT P6SM BKN018 WS020/22060KT FM030100 22022G30KT P6SM SCT018 FM030600 33016G22KT P6SM SCT250
NOTAMs
Click for the latest NOTAMs
NOTAMs are issued by the DoD/FAA and will open in a separate window not controlled by AirNav.

 

 
 

Would you like to see your business listed on this page?

 If your business provides an interesting product or service to pilots, flight crews, aircraft, or users of the Spencer Field Airport, you should consider listing it here.  To start the listing process, click on the button below
 
Add a business
 

Other Pages about Spencer Field Airport

Update a link
 
Copyright © AirNav, LLC. All rights reserved. Privacy Policy  Contact